עמוד ראשי
METAR-TAF:

METAR-TAF

שדות תעופה :

תטואן, מרוקו

קו רוחב: 35-35N, קו אורך: 005-20W, גובה: 10מטר

תצפית מזג אוויר נוכחית

הדו"ח נערך לפני 36דקות, בשעה 11:00 UTC
רוח 9קשר מכיוון מזרח, משתנה בין צפון-מזרח ו מזרח/דרום-מזרח
טמפרטורת 24 צלסיוס
לחות 78%
לחץ 1011 hPa
ראות: 8000מטר
עננים פזורים בגובה 1300רגל
עננים בינוניים בגובה 2000רגל

METAR: GMTN 251100Z 08009KT 050V110 8000 SCT013 BKN020 24/20 Q1011 NOSIG

זמן: 12:36 (11:36 UTC)


TAF: חסר

תצפיות ותחזיות מזג אוויר לגבי יותר מ- 4,000 שדות תעופה ברחבי העולם. דוחות METAR ו- TAF.

התחנות הזמינות מסומנות בנקודות צהובות ואדומות על גבי המפה.

העבר את העכבר לנקודה הצבעונית על מנת לראות את שם התחנה.

לאחר מכן, לחץ כדי לראות את תוכן ואת תחזיות מזג האוויר.

כדי לשנות את המפה: לחץ על הכפתורים הירוקים עם הפלוס השחור כדי להתקרב; על הכפתור הירוק עם המקף כדי להתרחק; או בחיצים הירוקים למפות סמוכות.


METAR-TAF: